Time;durP1;ratioP1;P1;durP2;ratioP2;P2;SDS_P1;SDS_P2;PMS_P1;PMS_P2;Temp;Humidity;BMP_temperature;BMP_pressure;BME280_temperature;BME280_humidity;BME280_pressure;Samples;Min_cycle;Max_cycle;Signal;HPM_P1;HPM_P2
2022/04/08 00:02:39;;;;;;;;;4.00;2.00;;;;;;;;5086573;27;51146;-45
2022/04/08 00:05:33;;;;;;;;;3.50;2.00;;;;;;;;5088770;27;51111;-45
2022/04/08 00:08:23;;;;;;;;;7.00;2.25;;;;;;;;5086266;27;51364;-45
2022/04/08 00:11:08;;;;;;;;;4.75;2.75;;;;;;;;5091794;27;51120;-46
2022/04/08 00:13:53;;;;;;;;;1.25;1.00;;;;;;;;5087784;27;51180;-44
2022/04/08 00:16:38;;;;;;;;;3.75;2.00;;;;;;;;5076587;27;51269;-46
2022/04/08 00:19:22;;;;;;;;;6.50;3.25;;;;;;;;5087976;27;51221;-47
2022/04/08 00:22:07;;;;;;;;;6.75;2.75;;;;;;;;5095031;27;51357;-46
2022/04/08 00:24:52;;;;;;;;;3.75;1.75;;;;;;;;5091171;27;51168;-48
2022/04/08 00:27:38;;;;;;;;;6.75;1.75;;;;;;;;5086621;27;51073;-46
2022/04/08 00:30:22;;;;;;;;;2.75;2.50;;;;;;;;5092204;27;51093;-48
2022/04/08 00:33:07;;;;;;;;;4.00;2.25;;;;;;;;5094788;27;51160;-47
2022/04/08 00:35:51;;;;;;;;;2.50;2.50;;;;;;;;5070096;27;52126;-45
2022/04/08 00:38:36;;;;;;;;;1.50;1.50;;;;;;;;5089193;27;51137;-46
2022/04/08 00:41:21;;;;;;;;;1.75;1.75;;;;;;;;5092719;27;51050;-49
2022/04/08 00:44:06;;;;;;;;;2.75;0.75;;;;;;;;5083923;27;51094;-46
2022/04/08 00:46:50;;;;;;;;;3.25;2.75;;;;;;;;5089687;27;51104;-46
2022/04/08 00:49:36;;;;;;;;;1.25;1.00;;;;;;;;5078028;27;51400;-47
2022/04/08 00:52:31;;;;;;;;;2.25;1.00;;;;;;;;5071599;27;51192;-51
2022/04/08 00:55:15;;;;;;;;;0.75;0.75;;;;;;;;5094107;27;51175;-49
2022/04/08 00:58:03;;;;;;;;;3.00;3.00;;;;;;;;5069738;27;51177;-45
2022/04/08 01:00:48;;;;;;;;;4.25;1.00;;;;;;;;5098793;27;51228;-47
2022/04/08 01:03:57;;;;;;;;;3.50;1.75;;;;;;;;5079678;27;51084;-46
2022/04/08 01:06:51;;;;;;;;;1.75;1.75;;;;;;;;5069534;27;51196;-47
2022/04/08 01:09:51;;;;;;;;;6.00;2.00;;;;;;;;5100523;27;51156;-48
2022/04/08 01:12:55;;;;;;;;;6.25;1.75;;;;;;;;5099584;27;51544;-49
2022/04/08 01:15:50;;;;;;;;;5.75;2.25;;;;;;;;5067435;27;51332;-45
2022/04/08 01:18:36;;;;;;;;;4.75;1.75;;;;;;;;5099844;27;51137;-46
2022/04/08 01:21:23;;;;;;;;;3.50;1.75;;;;;;;;5100006;27;51068;-47
2022/04/08 01:24:11;;;;;;;;;3.00;1.00;;;;;;;;5098639;27;51144;-49
2022/04/08 01:26:56;;;;;;;;;3.00;1.75;;;;;;;;5055935;27;51132;-46
2022/04/08 01:29:40;;;;;;;;;3.50;2.50;;;;;;;;5084081;27;51217;-44
2022/04/08 01:32:27;;;;;;;;;4.75;2.00;;;;;;;;5078961;27;51110;-46
2022/04/08 01:35:13;;;;;;;;;1.00;1.00;;;;;;;;5097186;27;51172;-46
2022/04/08 01:38:19;;;;;;;;;7.25;3.00;;;;;;;;5099654;27;51415;-46
2022/04/08 01:41:18;;;;;;;;;2.25;1.00;;;;;;;;5079272;27;51302;-47
2022/04/08 01:44:07;;;;;;;;;2.75;1.50;;;;;;;;5099318;27;51019;-49
2022/04/08 01:46:52;;;;;;;;;3.00;2.00;;;;;;;;5099565;27;51538;-45
2022/04/08 01:49:37;;;;;;;;;4.25;0.75;;;;;;;;5099536;27;51054;-46
2022/04/08 01:52:23;;;;;;;;;4.25;2.00;;;;;;;;5079129;27;51474;-46
2022/04/08 01:55:14;;;;;;;;;2.50;2.00;;;;;;;;5102417;27;51070;-45
2022/04/08 01:57:58;;;;;;;;;2.75;1.50;;;;;;;;5091032;27;51931;-47
2022/04/08 02:00:43;;;;;;;;;2.25;2.00;;;;;;;;5097669;27;51016;-46
2022/04/08 02:03:27;;;;;;;;;4.25;1.25;;;;;;;;5103176;27;51288;-45
2022/04/08 02:06:12;;;;;;;;;1.75;1.75;;;;;;;;5103863;27;51289;-46
2022/04/08 02:08:57;;;;;;;;;2.75;2.25;;;;;;;;5103293;27;51191;-44
2022/04/08 02:11:43;;;;;;;;;3.00;2.25;;;;;;;;5087904;27;51178;-45
2022/04/08 02:14:27;;;;;;;;;1.75;0.75;;;;;;;;5103104;27;51132;-49
2022/04/08 02:17:11;;;;;;;;;2.50;1.75;;;;;;;;5103625;27;51040;-46
2022/04/08 02:20:08;;;;;;;;;3.50;2.00;;;;;;;;5101640;27;51125;-45
2022/04/08 02:22:52;;;;;;;;;4.25;1.75;;;;;;;;5103173;27;51164;-48
2022/04/08 02:25:37;;;;;;;;;2.75;2.75;;;;;;;;5103199;27;51125;-47
2022/04/08 02:28:21;;;;;;;;;2.75;2.75;;;;;;;;5102350;27;51191;-44
2022/04/08 02:31:13;;;;;;;;;3.50;1.00;;;;;;;;5102149;27;51042;-46
2022/04/08 02:33:59;;;;;;;;;7.25;3.75;;;;;;;;5096782;27;51117;-44
2022/04/08 02:36:43;;;;;;;;;3.00;1.00;;;;;;;;5103187;27;51542;-47
2022/04/08 02:39:28;;;;;;;;;5.00;1.25;;;;;;;;5102406;27;51058;-47
2022/04/08 02:42:12;;;;;;;;;4.25;2.00;;;;;;;;5101434;27;51131;-47
2022/04/08 02:44:57;;;;;;;;;2.50;2.25;;;;;;;;5102866;27;51102;-48
2022/04/08 02:47:43;;;;;;;;;4.25;2.75;;;;;;;;5102680;27;51359;-47
2022/04/08 02:50:29;;;;;;;;;2.00;2.00;;;;;;;;5102891;27;51197;-44
2022/04/08 02:53:16;;;;;;;;;2.75;2.00;;;;;;;;5086483;27;51211;-46
2022/04/08 02:56:01;;;;;;;;;5.50;2.00;;;;;;;;5102615;27;51340;-44
2022/04/08 02:58:48;;;;;;;;;4.25;2.50;;;;;;;;5084760;27;51166;-46
2022/04/08 03:01:34;;;;;;;;;1.75;1.75;;;;;;;;5102752;27;51100;-46
2022/04/08 03:04:18;;;;;;;;;2.25;2.00;;;;;;;;5100302;27;51101;-47
2022/04/08 03:07:03;;;;;;;;;4.00;2.00;;;;;;;;5101325;27;51123;-46
2022/04/08 03:09:47;;;;;;;;;3.25;2.00;;;;;;;;5102418;27;51383;-44
2022/04/08 03:12:33;;;;;;;;;4.25;2.00;;;;;;;;5102217;27;51111;-47
2022/04/08 03:15:39;;;;;;;;;7.25;1.75;;;;;;;;5102446;27;51211;-47
2022/04/08 03:18:25;;;;;;;;;2.00;1.75;;;;;;;;5101927;27;51236;-48
2022/04/08 03:21:11;;;;;;;;;3.00;3.00;;;;;;;;5093398;27;51606;-50
2022/04/08 03:23:55;;;;;;;;;6.75;2.00;;;;;;;;5081954;27;51312;-48
2022/04/08 03:26:41;;;;;;;;;5.00;2.75;;;;;;;;5102103;27;51170;-48
2022/04/08 03:29:25;;;;;;;;;5.25;3.75;;;;;;;;5084548;27;51465;-44
2022/04/08 03:32:10;;;;;;;;;4.25;2.50;;;;;;;;5101997;27;50982;-46
2022/04/08 03:35:08;;;;;;;;;6.25;4.00;;;;;;;;5101927;27;51074;-44
2022/04/08 03:37:52;;;;;;;;;6.75;3.25;;;;;;;;5080903;27;51328;-45
2022/04/08 03:40:37;;;;;;;;;3.50;2.25;;;;;;;;5078769;27;51006;-47
2022/04/08 03:43:22;;;;;;;;;8.00;4.00;;;;;;;;5100044;27;51136;-47
2022/04/08 03:46:06;;;;;;;;;6.50;3.25;;;;;;;;5101691;27;51229;-45
2022/04/08 03:48:50;;;;;;;;;4.50;3.75;;;;;;;;5100664;27;51069;-49
2022/04/08 03:51:36;;;;;;;;;5.50;4.50;;;;;;;;5101855;27;50998;-46
2022/04/08 03:54:22;;;;;;;;;8.00;4.25;;;;;;;;5100729;27;51152;-47
2022/04/08 03:57:27;;;;;;;;;4.25;4.25;;;;;;;;5098599;27;51249;-45
2022/04/08 04:00:12;;;;;;;;;7.25;5.50;;;;;;;;5101295;27;51429;-45
2022/04/08 04:03:00;;;;;;;;;2.75;2.50;;;;;;;;5101234;27;51057;-46
2022/04/08 04:05:45;;;;;;;;;11.00;5.25;;;;;;;;5101293;27;51073;-46
2022/04/08 04:08:29;;;;;;;;;3.00;1.75;;;;;;;;5101161;27;51166;-49
2022/04/08 04:11:16;;;;;;;;;4.00;2.75;;;;;;;;5100816;27;51420;-48
2022/04/08 04:14:13;;;;;;;;;4.50;4.00;;;;;;;;5100302;27;51141;-45
2022/04/08 04:16:58;;;;;;;;;6.50;5.50;;;;;;;;5101061;27;51059;-43
2022/04/08 04:19:46;;;;;;;;;11.25;7.00;;;;;;;;5094960;27;51055;-44
2022/04/08 04:22:40;;;;;;;;;5.75;5.75;;;;;;;;5080278;27;51478;-46
2022/04/08 04:25:26;;;;;;;;;10.25;7.00;;;;;;;;5083397;27;51306;-45
2022/04/08 04:28:10;;;;;;;;;11.25;6.50;;;;;;;;5082140;27;51239;-48
2022/04/08 04:30:54;;;;;;;;;12.00;7.25;;;;;;;;5090681;27;51152;-45
2022/04/08 04:33:39;;;;;;;;;9.00;7.25;;;;;;;;5085465;27;51166;-45
2022/04/08 04:36:24;;;;;;;;;9.00;6.50;;;;;;;;5080157;27;51489;-45
2022/04/08 04:39:10;;;;;;;;;8.00;6.00;;;;;;;;5088587;27;51336;-47
2022/04/08 04:42:07;;;;;;;;;11.75;7.75;;;;;;;;5087270;27;51097;-47
2022/04/08 04:44:53;;;;;;;;;10.50;8.00;;;;;;;;5098631;27;51531;-43
2022/04/08 04:47:46;;;;;;;;;20.50;14.25;;;;;;;;5100198;27;51146;-45
2022/04/08 04:50:32;;;;;;;;;10.25;9.25;;;;;;;;5093565;27;51408;-44
2022/04/08 04:53:16;;;;;;;;;17.50;14.00;;;;;;;;5096559;27;51192;-44
2022/04/08 04:56:15;;;;;;;;;9.75;9.25;;;;;;;;5096624;27;51466;-44
2022/04/08 04:59:00;;;;;;;;;10.75;9.00;;;;;;;;5086850;27;51223;-46
2022/04/08 05:01:45;;;;;;;;;7.50;6.00;;;;;;;;5099252;27;51375;-44
2022/04/08 05:04:34;;;;;;;;;10.75;9.00;;;;;;;;5084893;27;51199;-47
2022/04/08 05:07:19;;;;;;;;;19.50;18.25;;;;;;;;5079875;27;51245;-48
2022/04/08 05:10:06;;;;;;;;;14.00;10.00;;;;;;;;5095928;27;51577;-47
2022/04/08 05:12:51;;;;;;;;;10.50;7.75;;;;;;;;5099681;27;50993;-45
2022/04/08 05:15:51;;;;;;;;;10.75;7.00;;;;;;;;5100149;27;51200;-46
2022/04/08 05:18:37;;;;;;;;;9.75;8.50;;;;;;;;5099992;27;51170;-47
2022/04/08 05:21:23;;;;;;;;;13.75;9.00;;;;;;;;5099883;27;51479;-46
2022/04/08 05:24:16;;;;;;;;;9.50;8.25;;;;;;;;5098469;27;51339;-43
2022/04/08 05:27:00;;;;;;;;;10.75;10.00;;;;;;;;5099833;27;51426;-44
2022/04/08 05:29:45;;;;;;;;;14.75;11.00;;;;;;;;5096775;27;51064;-44
2022/04/08 05:32:30;;;;;;;;;9.50;8.25;;;;;;;;5095520;27;51082;-44
2022/04/08 05:35:19;;;;;;;;;13.75;12.00;;;;;;;;5099582;27;51450;-44
2022/04/08 05:38:03;;;;;;;;;13.75;11.25;;;;;;;;5081116;27;51083;-43
2022/04/08 05:40:49;;;;;;;;;14.00;12.50;;;;;;;;5099813;27;51389;-47
2022/04/08 05:43:34;;;;;;;;;12.50;11.25;;;;;;;;5099415;27;51007;-48
2022/04/08 05:46:19;;;;;;;;;12.25;10.50;;;;;;;;5099223;27;51078;-46
2022/04/08 05:49:06;;;;;;;;;20.25;13.25;;;;;;;;5099187;27;51235;-46
2022/04/08 05:51:50;;;;;;;;;11.50;11.00;;;;;;;;5099118;27;51444;-46
2022/04/08 05:54:36;;;;;;;;;13.25;10.50;;;;;;;;5098322;27;51278;-44
2022/04/08 05:57:21;;;;;;;;;12.50;10.50;;;;;;;;5099512;27;51040;-45
2022/04/08 06:00:10;;;;;;;;;9.50;8.75;;;;;;;;5095779;27;51240;-43
2022/04/08 06:02:56;;;;;;;;;13.00;11.00;;;;;;;;5078838;27;51122;-45
2022/04/08 06:05:41;;;;;;;;;11.00;11.00;;;;;;;;5079235;27;51133;-47
2022/04/08 06:08:25;;;;;;;;;16.00;14.50;;;;;;;;5099163;27;51149;-47
2022/04/08 06:11:12;;;;;;;;;15.00;15.00;;;;;;;;5098562;27;51057;-46
2022/04/08 06:13:56;;;;;;;;;18.00;14.75;;;;;;;;5099564;27;51075;-44
2022/04/08 06:16:42;;;;;;;;;23.25;19.25;;;;;;;;5099403;27;51583;-46
2022/04/08 06:19:28;;;;;;;;;20.75;19.50;;;;;;;;5092638;27;51074;-46
2022/04/08 06:22:12;;;;;;;;;20.00;18.50;;;;;;;;5098878;27;51023;-46
2022/04/08 06:24:57;;;;;;;;;17.00;17.00;;;;;;;;5092888;27;51061;-45
2022/04/08 06:27:41;;;;;;;;;18.50;18.50;;;;;;;;5098622;27;51139;-46
2022/04/08 06:30:26;;;;;;;;;29.25;21.50;;;;;;;;5096430;27;51711;-47
2022/04/08 06:33:20;;;;;;;;;28.50;23.25;;;;;;;;5091210;27;51138;-47
2022/04/08 06:36:05;;;;;;;;;27.00;25.50;;;;;;;;5086008;27;51456;-49
2022/04/08 06:38:50;;;;;;;;;33.00;28.75;;;;;;;;5090630;27;51217;-46
2022/04/08 06:41:45;;;;;;;;;35.50;30.00;;;;;;;;5095541;27;51437;-46
2022/04/08 06:44:32;;;;;;;;;34.50;29.50;;;;;;;;5096998;27;51204;-46
2022/04/08 06:47:39;;;;;;;;;34.25;29.75;;;;;;;;5099263;27;51153;-46
2022/04/08 06:50:25;;;;;;;;;38.00;33.00;;;;;;;;5097650;27;51110;-44
2022/04/08 06:53:11;;;;;;;;;39.25;32.50;;;;;;;;5095527;27;51217;-44
2022/04/08 06:56:01;;;;;;;;;31.25;25.75;;;;;;;;5098984;27;51393;-45
2022/04/08 06:58:56;;;;;;;;;34.00;30.25;;;;;;;;5096527;27;51170;-44
2022/04/08 07:01:40;;;;;;;;;31.50;28.00;;;;;;;;5097537;27;51346;-46
2022/04/08 07:04:26;;;;;;;;;35.75;30.00;;;;;;;;5098231;27;51133;-47
2022/04/08 07:07:15;;;;;;;;;33.50;29.75;;;;;;;;5091806;27;51446;-45
2022/04/08 07:10:02;;;;;;;;;26.50;23.75;;;;;;;;5094349;27;51153;-46
2022/04/08 07:12:55;;;;;;;;;30.75;26.50;;;;;;;;5097666;27;51053;-45
2022/04/08 07:15:39;;;;;;;;;31.75;26.25;;;;;;;;5097147;27;51610;-46
2022/04/08 07:18:24;;;;;;;;;31.25;27.00;;;;;;;;5098934;27;51089;-49
2022/04/08 07:21:12;;;;;;;;;30.75;25.75;;;;;;;;5100681;27;51105;-51
2022/04/08 07:23:59;;;;;;;;;33.25;29.75;;;;;;;;5102930;27;51070;-48
2022/04/08 07:26:46;;;;;;;;;32.00;28.75;;;;;;;;5102369;27;51567;-49
2022/04/08 07:29:31;;;;;;;;;33.75;30.00;;;;;;;;5102417;27;51053;-49
2022/04/08 07:32:20;;;;;;;;;26.50;23.00;;;;;;;;5102531;27;51872;-50
2022/04/08 07:35:08;;;;;;;;;31.00;27.75;;;;;;;;5096532;27;51179;-51
2022/04/08 07:38:03;;;;;;;;;27.50;23.75;;;;;;;;5086138;27;51165;-48
2022/04/08 07:40:49;;;;;;;;;33.75;28.75;;;;;;;;5100622;27;51537;-49
2022/04/08 07:43:35;;;;;;;;;28.75;26.50;;;;;;;;5099897;27;51112;-50
2022/04/08 07:46:19;;;;;;;;;30.50;26.75;;;;;;;;5088636;27;51543;-52
2022/04/08 07:49:06;;;;;;;;;24.75;22.50;;;;;;;;5083189;27;51054;-50
2022/04/08 07:51:52;;;;;;;;;32.00;28.75;;;;;;;;5089842;27;51038;-51
2022/04/08 07:54:37;;;;;;;;;27.75;23.00;;;;;;;;5098531;27;51193;-49
2022/04/08 07:57:27;;;;;;;;;24.75;20.75;;;;;;;;5085636;27;51193;-51
2022/04/08 08:00:14;;;;;;;;;30.00;24.25;;;;;;;;5099179;27;51073;-50
2022/04/08 08:03:09;;;;;;;;;32.50;28.25;;;;;;;;5100643;27;51003;-50
2022/04/08 08:06:04;;;;;;;;;29.50;27.75;;;;;;;;5081241;27;51291;-50
2022/04/08 08:08:50;;;;;;;;;29.25;27.50;;;;;;;;5085138;27;51196;-50
2022/04/08 08:11:47;;;;;;;;;31.50;26.75;;;;;;;;5090100;27;51462;-50
2022/04/08 08:14:33;;;;;;;;;24.25;23.75;;;;;;;;5084780;27;51082;-50
2022/04/08 08:17:25;;;;;;;;;28.00;24.00;;;;;;;;5089064;27;51198;-53
2022/04/08 08:20:11;;;;;;;;;22.50;15.75;;;;;;;;5078387;27;51147;-50
2022/04/08 08:22:58;;;;;;;;;18.75;18.75;;;;;;;;5077851;27;51014;-52
2022/04/08 08:25:44;;;;;;;;;26.75;22.50;;;;;;;;5091792;27;51534;-50
2022/04/08 08:28:30;;;;;;;;;29.25;22.25;;;;;;;;5079070;27;51138;-54
2022/04/08 08:31:16;;;;;;;;;20.75;17.75;;;;;;;;5075859;27;51467;-52
2022/04/08 08:34:01;;;;;;;;;15.25;12.50;;;;;;;;5076495;27;51241;-54
2022/04/08 08:36:46;;;;;;;;;13.75;11.00;;;;;;;;5096036;27;51453;-52
2022/04/08 08:39:33;;;;;;;;;13.50;12.00;;;;;;;;5096866;27;51074;-53
2022/04/08 08:42:18;;;;;;;;;14.00;11.25;;;;;;;;5078736;27;51391;-52
2022/04/08 08:45:03;;;;;;;;;18.50;16.50;;;;;;;;5094947;27;51620;-51
2022/04/08 08:47:49;;;;;;;;;16.75;14.50;;;;;;;;5083794;27;51618;-51
2022/04/08 08:50:40;;;;;;;;;18.00;14.00;;;;;;;;5084660;27;51238;-53
2022/04/08 08:53:25;;;;;;;;;14.25;13.25;;;;;;;;5091713;27;52514;-51
2022/04/08 08:56:09;;;;;;;;;22.75;19.75;;;;;;;;5077797;27;51373;-55
2022/04/08 08:58:54;;;;;;;;;30.50;27.00;;;;;;;;5075560;27;51245;-50
2022/04/08 09:01:39;;;;;;;;;28.25;20.50;;;;;;;;5099187;27;51741;-51
2022/04/08 09:04:25;;;;;;;;;18.00;14.25;;;;;;;;5095556;27;51335;-51
2022/04/08 09:07:29;;;;;;;;;19.75;17.50;;;;;;;;5098320;27;51420;-52
2022/04/08 09:10:14;;;;;;;;;22.75;18.50;;;;;;;;5099481;27;51411;-51
2022/04/08 09:13:00;;;;;;;;;22.75;22.75;;;;;;;;5083610;27;52033;-52
2022/04/08 09:16:02;;;;;;;;;29.00;25.00;;;;;;;;5098483;27;51311;-55
2022/04/08 09:18:54;;;;;;;;;25.00;24.50;;;;;;;;5099259;27;51125;-52
2022/04/08 09:21:41;;;;;;;;;29.50;26.25;;;;;;;;5099429;27;51105;-53
2022/04/08 09:24:27;;;;;;;;;25.50;21.75;;;;;;;;5084819;27;51214;-53
2022/04/08 09:27:38;;;;;;;;;27.00;22.25;;;;;;;;5086339;27;51178;-55
2022/04/08 09:30:24;;;;;;;;;26.75;24.00;;;;;;;;5085885;27;51137;-51
2022/04/08 09:33:10;;;;;;;;;25.00;23.00;;;;;;;;5097534;27;51468;-54
2022/04/08 09:35:58;;;;;;;;;23.50;21.25;;;;;;;;5086843;27;51126;-50
2022/04/08 09:38:49;;;;;;;;;22.25;17.75;;;;;;;;5099903;27;51046;-51
2022/04/08 09:41:40;;;;;;;;;18.25;18.25;;;;;;;;5100508;27;51240;-54
2022/04/08 09:44:39;;;;;;;;;24.25;17.50;;;;;;;;5098996;27;51018;-53
2022/04/08 09:47:37;;;;;;;;;19.00;15.25;;;;;;;;5098268;27;51080;-50
2022/04/08 09:50:43;;;;;;;;;16.75;13.00;;;;;;;;5100439;27;51564;-51
2022/04/08 09:53:28;;;;;;;;;19.75;12.00;;;;;;;;5099920;27;51200;-55
2022/04/08 09:56:18;;;;;;;;;10.50;10.50;;;;;;;;5100578;27;51159;-53
2022/04/08 09:59:07;;;;;;;;;9.00;7.75;;;;;;;;5095973;27;51570;-53
2022/04/08 10:02:09;;;;;;;;;9.00;6.75;;;;;;;;5099357;27;51178;-52
2022/04/08 10:04:58;;;;;;;;;8.75;6.75;;;;;;;;5099523;27;51350;-52
2022/04/08 10:07:45;;;;;;;;;9.00;7.00;;;;;;;;5099847;27;51421;-53
2022/04/08 10:10:53;;;;;;;;;12.25;8.00;;;;;;;;5100309;27;51063;-51
2022/04/08 10:13:57;;;;;;;;;9.25;7.75;;;;;;;;5099947;27;51521;-52
2022/04/08 10:16:43;;;;;;;;;14.75;9.50;;;;;;;;5103482;27;51475;-54
2022/04/08 10:19:28;;;;;;;;;9.25;8.00;;;;;;;;5103582;27;51094;-51
2022/04/08 10:22:20;;;;;;;;;10.25;9.25;;;;;;;;5104675;27;51097;-49
2022/04/08 10:25:12;;;;;;;;;11.00;9.00;;;;;;;;5104001;27;51070;-52
2022/04/08 10:28:01;;;;;;;;;15.00;11.00;;;;;;;;5090180;27;51117;-49
2022/04/08 10:30:48;;;;;;;;;25.00;20.75;;;;;;;;5092575;27;51069;-51
2022/04/08 10:33:45;;;;;;;;;16.75;15.75;;;;;;;;5103291;27;51119;-54
2022/04/08 10:36:37;;;;;;;;;13.75;12.75;;;;;;;;5083582;27;51161;-51
2022/04/08 10:39:22;;;;;;;;;22.25;13.75;;;;;;;;5103079;27;51346;-54
2022/04/08 10:42:08;;;;;;;;;11.75;10.00;;;;;;;;5098138;27;51450;-53
2022/04/08 10:45:04;;;;;;;;;15.50;15.25;;;;;;;;5082622;27;51098;-51
2022/04/08 10:47:49;;;;;;;;;11.00;10.50;;;;;;;;5102588;27;51100;-51
2022/04/08 10:50:34;;;;;;;;;14.25;14.00;;;;;;;;5103293;27;50986;-54
2022/04/08 10:53:22;;;;;;;;;19.75;13.50;;;;;;;;5102294;27;51021;-53
2022/04/08 10:56:15;;;;;;;;;14.25;13.75;;;;;;;;5091216;27;51432;-54
2022/04/08 10:59:00;;;;;;;;;12.50;10.25;;;;;;;;5102572;27;51078;-53
2022/04/08 11:01:45;;;;;;;;;17.50;14.50;;;;;;;;5103608;27;51294;-54
2022/04/08 11:04:30;;;;;;;;;14.75;12.50;;;;;;;;5102398;27;51330;-53
2022/04/08 11:07:18;;;;;;;;;23.75;19.50;;;;;;;;5094358;27;51557;-53
2022/04/08 11:10:06;;;;;;;;;13.00;13.00;;;;;;;;5085239;27;51101;-51
2022/04/08 11:12:52;;;;;;;;;15.50;14.25;;;;;;;;5092167;27;51114;-52
2022/04/08 11:15:38;;;;;;;;;17.00;15.00;;;;;;;;5079495;27;51823;-54
2022/04/08 11:18:39;;;;;;;;;12.00;12.00;;;;;;;;5079101;27;51445;-51
2022/04/08 11:21:26;;;;;;;;;17.25;14.00;;;;;;;;5078924;27;51625;-50
2022/04/08 11:24:13;;;;;;;;;20.00;16.25;;;;;;;;5084461;27;51171;-54
2022/04/08 11:26:58;;;;;;;;;18.50;18.50;;;;;;;;5096589;27;51156;-55
2022/04/08 11:29:43;;;;;;;;;20.50;16.75;;;;;;;;5082914;27;51949;-52
2022/04/08 11:32:51;;;;;;;;;22.25;18.50;;;;;;;;5092328;27;51385;-54
2022/04/08 11:35:39;;;;;;;;;19.00;16.25;;;;;;;;5095884;27;51593;-55
2022/04/08 11:38:29;;;;;;;;;17.75;15.00;;;;;;;;5088326;27;51316;-52
2022/04/08 11:41:20;;;;;;;;;21.00;20.00;;;;;;;;5083488;27;51598;-55
2022/04/08 11:44:05;;;;;;;;;19.50;19.50;;;;;;;;5074286;27;51400;-54
2022/04/08 11:46:52;;;;;;;;;15.75;14.75;;;;;;;;5074500;27;51520;-55
2022/04/08 11:49:50;;;;;;;;;15.50;13.50;;;;;;;;5070489;27;51505;-55
2022/04/08 11:52:37;;;;;;;;;17.25;13.50;;;;;;;;5078604;27;52219;-52
2022/04/08 11:55:22;;;;;;;;;17.00;13.75;;;;;;;;5076366;27;51629;-55
2022/04/08 11:58:16;;;;;;;;;10.75;10.75;;;;;;;;5096465;27;51254;-50
2022/04/08 12:01:09;;;;;;;;;9.50;9.50;;;;;;;;5097393;27;52142;-52
2022/04/08 12:04:01;;;;;;;;;13.25;9.75;;;;;;;;5097735;27;51137;-53
2022/04/08 12:06:49;;;;;;;;;12.75;9.75;;;;;;;;5071636;27;51429;-53
2022/04/08 12:09:36;;;;;;;;;11.50;10.00;;;;;;;;5082212;27;51196;-51
2022/04/08 12:12:31;;;;;;;;;10.00;10.00;;;;;;;;5078254;27;51367;-51
2022/04/08 12:15:19;;;;;;;;;11.25;9.00;;;;;;;;5096445;27;51132;-48
2022/04/08 12:18:06;;;;;;;;;16.50;9.00;;;;;;;;5099201;27;51390;-52
2022/04/08 12:20:52;;;;;;;;;11.50;9.00;;;;;;;;5098775;27;51406;-51
2022/04/08 12:23:53;;;;;;;;;14.50;11.50;;;;;;;;5101353;27;51205;-53
2022/04/08 12:26:38;;;;;;;;;5.75;5.75;;;;;;;;5100758;27;51088;-51
2022/04/08 12:29:29;;;;;;;;;13.75;9.25;;;;;;;;5101336;27;51130;-49
2022/04/08 12:32:17;;;;;;;;;10.00;7.75;;;;;;;;5100984;27;51552;-51
2022/04/08 12:35:23;;;;;;;;;10.00;8.75;;;;;;;;5068232;27;51536;-50
2022/04/08 12:38:23;;;;;;;;;5.75;5.75;;;;;;;;5072403;27;51446;-52
2022/04/08 12:41:09;;;;;;;;;9.50;7.50;;;;;;;;5100164;27;51138;-50
2022/04/08 12:44:14;;;;;;;;;7.75;6.25;;;;;;;;5100866;27;51185;-48
2022/04/08 12:46:59;;;;;;;;;11.25;9.00;;;;;;;;5099937;27;51203;-50
2022/04/08 12:49:44;;;;;;;;;8.50;7.75;;;;;;;;5101010;27;51178;-51
2022/04/08 12:52:49;;;;;;;;;11.00;8.75;;;;;;;;5080098;27;51630;-52
2022/04/08 12:55:33;;;;;;;;;10.75;9.00;;;;;;;;5099582;27;51156;-50
2022/04/08 12:58:30;;;;;;;;;9.50;7.75;;;;;;;;5100937;27;51503;-52
2022/04/08 13:01:23;;;;;;;;;8.50;8.00;;;;;;;;5100883;27;51096;-49
2022/04/08 13:04:17;;;;;;;;;10.75;8.75;;;;;;;;5086433;27;51458;-49
2022/04/08 13:07:08;;;;;;;;;9.25;6.25;;;;;;;;5083009;27;51130;-51
2022/04/08 13:09:59;;;;;;;;;13.75;8.00;;;;;;;;5099890;27;51125;-49
2022/04/08 13:12:52;;;;;;;;;9.50;7.75;;;;;;;;5037090;28;51794;-49
2022/04/08 13:15:38;;;;;;;;;11.50;7.50;;;;;;;;5019503;28;51232;-50
2022/04/08 13:18:23;;;;;;;;;11.75;8.25;;;;;;;;5027319;28;51156;-54
2022/04/08 13:21:08;;;;;;;;;14.50;9.00;;;;;;;;5031980;28;51188;-52
2022/04/08 13:23:53;;;;;;;;;7.25;5.75;;;;;;;;5032453;28;51590;-52
2022/04/08 13:26:39;;;;;;;;;7.25;7.25;;;;;;;;5034548;28;51187;-52
2022/04/08 13:29:52;;;;;;;;;12.00;11.00;;;;;;;;5032340;28;51365;-54
2022/04/08 13:32:45;;;;;;;;;8.50;6.25;;;;;;;;5030155;28;51926;-52
2022/04/08 13:35:35;;;;;;;;;8.25;7.75;;;;;;;;5036695;28;51159;-51
2022/04/08 13:38:40;;;;;;;;;5.50;5.50;;;;;;;;5035824;28;51339;-51
2022/04/08 13:41:26;;;;;;;;;13.25;10.50;;;;;;;;5019153;28;51529;-52
2022/04/08 13:44:18;;;;;;;;;13.50;10.50;;;;;;;;5036021;28;51274;-50
2022/04/08 13:47:08;;;;;;;;;14.00;9.00;;;;;;;;5035671;28;51121;-55
2022/04/08 13:49:53;;;;;;;;;12.50;6.50;;;;;;;;5061190;27;51171;-53
2022/04/08 13:53:01;;;;;;;;;8.75;8.75;;;;;;;;5101510;27;51081;-52
2022/04/08 13:55:50;;;;;;;;;11.75;10.00;;;;;;;;5102317;27;51211;-51
2022/04/08 13:58:38;;;;;;;;;10.00;10.00;;;;;;;;5102538;27;51133;-52
2022/04/08 14:01:23;;;;;;;;;8.00;7.25;;;;;;;;5104242;27;51143;-54
2022/04/08 14:04:18;;;;;;;;;13.75;12.00;;;;;;;;5098934;27;51483;-53
2022/04/08 14:07:05;;;;;;;;;16.00;11.50;;;;;;;;5102619;27;51579;-52
2022/04/08 14:09:49;;;;;;;;;17.25;11.00;;;;;;;;5103639;27;51163;-53
2022/04/08 14:12:34;;;;;;;;;13.25;10.25;;;;;;;;5104014;27;51133;-56
2022/04/08 14:15:23;;;;;;;;;9.50;7.00;;;;;;;;5102775;27;51177;-52
2022/04/08 14:18:09;;;;;;;;;12.00;10.25;;;;;;;;5103311;27;51236;-54
2022/04/08 14:20:56;;;;;;;;;17.25;13.25;;;;;;;;5102709;27;51451;-52
2022/04/08 14:23:48;;;;;;;;;12.75;11.00;;;;;;;;5102662;27;51067;-54
2022/04/08 14:26:44;;;;;;;;;14.75;12.00;;;;;;;;5104134;27;51044;-54
2022/04/08 14:29:41;;;;;;;;;17.50;11.00;;;;;;;;5102710;27;51087;-55
2022/04/08 14:32:25;;;;;;;;;15.50;13.50;;;;;;;;5082875;27;51084;-50
2022/04/08 14:35:18;;;;;;;;;15.25;12.00;;;;;;;;5081281;27;51133;-53
2022/04/08 14:38:03;;;;;;;;;12.50;10.75;;;;;;;;5091595;27;51247;-53
2022/04/08 14:40:49;;;;;;;;;10.25;10.00;;;;;;;;5103121;27;51146;-52
2022/04/08 14:43:37;;;;;;;;;14.50;11.50;;;;;;;;5103182;27;51137;-53
2022/04/08 14:46:24;;;;;;;;;11.75;11.75;;;;;;;;5071536;27;51088;-53
2022/04/08 14:49:09;;;;;;;;;11.25;9.75;;;;;;;;5102254;27;51103;-50
2022/04/08 14:51:56;;;;;;;;;13.00;10.50;;;;;;;;5087905;27;51000;-50
2022/04/08 14:54:43;;;;;;;;;15.25;11.00;;;;;;;;5069983;27;51283;-54
2022/04/08 14:57:38;;;;;;;;;20.50;18.25;;;;;;;;5102814;27;51517;-51
2022/04/08 15:00:26;;;;;;;;;21.75;14.50;;;;;;;;5085894;27;51336;-52
2022/04/08 15:03:11;;;;;;;;;21.00;17.50;;;;;;;;5095380;27;51053;-54
2022/04/08 15:05:59;;;;;;;;;13.25;11.00;;;;;;;;5102488;27;51021;-55
2022/04/08 15:08:45;;;;;;;;;20.75;18.75;;;;;;;;5102957;27;51196;-53
2022/04/08 15:11:31;;;;;;;;;22.50;18.50;;;;;;;;5101521;27;51506;-54
2022/04/08 15:14:18;;;;;;;;;15.25;14.75;;;;;;;;5102236;27;51070;-54
2022/04/08 15:17:02;;;;;;;;;16.75;12.50;;;;;;;;5102824;27;51064;-55
2022/04/08 15:19:47;;;;;;;;;16.50;13.00;;;;;;;;5101883;27;51162;-56
2022/04/08 15:22:31;;;;;;;;;20.00;17.25;;;;;;;;5102497;27;51425;-55
2022/04/08 15:25:16;;;;;;;;;20.50;20.25;;;;;;;;5102012;27;51175;-52
2022/04/08 15:28:06;;;;;;;;;19.50;12.25;;;;;;;;5081320;27;51212;-52
2022/04/08 15:31:01;;;;;;;;;15.75;15.75;;;;;;;;5098583;27;51173;-52
2022/04/08 15:34:04;;;;;;;;;17.75;14.00;;;;;;;;5094398;27;51519;-54
2022/04/08 15:36:58;;;;;;;;;28.00;28.00;;;;;;;;5089885;27;51185;-54
2022/04/08 15:39:53;;;;;;;;;18.75;16.00;;;;;;;;5086759;27;51200;-55
2022/04/08 15:42:38;;;;;;;;;10.25;9.75;;;;;;;;5101890;27;51116;-53
2022/04/08 15:45:24;;;;;;;;;18.50;16.00;;;;;;;;5101953;27;51377;-54
2022/04/08 15:48:10;;;;;;;;;17.25;15.00;;;;;;;;5089253;27;51190;-53
2022/04/08 15:50:54;;;;;;;;;15.00;13.75;;;;;;;;5086167;27;51099;-51
2022/04/08 15:53:39;;;;;;;;;20.75;16.50;;;;;;;;5088653;27;51129;-55
2022/04/08 15:56:23;;;;;;;;;13.75;11.50;;;;;;;;5102172;27;51090;-55
2022/04/08 15:59:08;;;;;;;;;27.25;21.75;;;;;;;;5102065;27;51108;-52
2022/04/08 16:01:52;;;;;;;;;15.00;13.25;;;;;;;;5084068;27;51052;-54
2022/04/08 16:04:36;;;;;;;;;14.25;11.75;;;;;;;;5086475;27;51041;-53
2022/04/08 16:07:21;;;;;;;;;13.75;13.00;;;;;;;;5082928;27;51427;-54
2022/04/08 16:10:06;;;;;;;;;19.75;17.75;;;;;;;;5101920;27;51138;-52
2022/04/08 16:12:51;;;;;;;;;17.25;13.50;;;;;;;;5101042;27;51398;-54
2022/04/08 16:15:35;;;;;;;;;12.75;12.75;;;;;;;;5078802;27;51110;-51
2022/04/08 16:18:19;;;;;;;;;12.50;10.75;;;;;;;;5096268;27;51082;-55
2022/04/08 16:21:06;;;;;;;;;17.50;13.50;;;;;;;;5089660;27;51430;-53
2022/04/08 16:23:57;;;;;;;;;17.50;13.50;;;;;;;;5098730;27;51161;-54
2022/04/08 16:26:42;;;;;;;;;15.75;12.00;;;;;;;;5101688;27;51076;-53
2022/04/08 16:29:27;;;;;;;;;18.25;12.50;;;;;;;;5101397;27;51095;-51
2022/04/08 16:32:12;;;;;;;;;12.25;11.00;;;;;;;;5085999;27;51023;-52
2022/04/08 16:34:57;;;;;;;;;18.00;12.00;;;;;;;;5101379;27;51172;-54